Main page
METAR-TAF:

METAR-TAF

Airports :

Yakutsk Airport

Yakutsk, Russia

latitude: 62-01N, longitude: 129-43E, elevation: 103 m

Current weather observation

The report was made 41 minutes ago, at 09:30 UTC
Wind 4 kt from the West/Southwest, varying between South and West
Temperature 22°C
Humidity 41%
Pressure 1009 hPa
Visibility 10 km or more
no clouds below 1500 m and no cumulonimbus

METAR: UEEE 230930Z 24002MPS 190V270 CAVOK 22/08 Q1009 R23L/09//60 NOSIG RMK QFE748

Time: 19:11 (10:11 UTC)

Forecast

The report was made 2 hours and 11 minutes ago, at 08:00 UTC
Forecast valid from 23 at 09 UTC to 24 at 15 UTC
Wind 6 kt from the South/Southeast
Visibility 10 km or more
Scattered clouds at a height of 3000 ft
Broken clouds at a height of 10000 ft

TAF: UEEE 230800Z 2309/2415 16003MPS 9999 SCT030 BKN100

Weather observations and forecasts of more than 4000 airports (METAR and TAF reports).

The available stations are represented by yellow and red dots on the map.

Hover mouse over dot to see the name of the station.

Then click to see weather observations and forecasts.

To change the map : click on the green buttons with a black cross to zoom in, on the green button with a dash to zoom out, or on the green arrows for adjacent maps.


METAR-TAF: